sensor_id;sensor_type;location;lat;lon;timestamp;pressure;altitude;pressure_sealevel;temperature;humidity
18504;BME280;9381;54.244;10.074;2023-04-10T00:02:07;102031.59;;;8.06;100.00
18504;BME280;9381;54.244;10.074;2023-04-10T00:07:07;102030.63;;;7.99;100.00
18504;BME280;9381;54.244;10.074;2023-04-10T00:12:08;102027.22;;;7.97;100.00
18504;BME280;9381;54.244;10.074;2023-04-10T00:17:10;102031.13;;;7.87;100.00
18504;BME280;9381;54.244;10.074;2023-04-10T00:22:10;102027.06;;;7.83;100.00
18504;BME280;9381;54.244;10.074;2023-04-10T00:27:11;102015.47;;;7.82;100.00
18504;BME280;9381;54.244;10.074;2023-04-10T00:32:11;102024.03;;;7.70;100.00
18504;BME280;9381;54.244;10.074;2023-04-10T00:37:11;102026.22;;;7.74;100.00
18504;BME280;9381;54.244;10.074;2023-04-10T00:42:11;102027.56;;;7.62;100.00
18504;BME280;9381;54.244;10.074;2023-04-10T00:47:12;102026.06;;;7.68;100.00
18504;BME280;9381;54.244;10.074;2023-04-10T00:52:13;102014.59;;;7.74;100.00
18504;BME280;9381;54.244;10.074;2023-04-10T00:57:13;102009.03;;;7.67;100.00
18504;BME280;9381;54.244;10.074;2023-04-10T01:02:14;102014.59;;;7.66;100.00
18504;BME280;9381;54.244;10.074;2023-04-10T01:17:56;102001.97;;;7.66;100.00
18504;BME280;9381;54.244;10.074;2023-04-10T01:33:19;101999.63;;;7.71;100.00
18504;BME280;9381;54.244;10.074;2023-04-10T01:38:23;101992.88;;;7.59;100.00
18504;BME280;9381;54.244;10.074;2023-04-10T01:43:25;101993.56;;;7.53;100.00
18504;BME280;9381;54.244;10.074;2023-04-10T01:48:27;101988.16;;;7.61;100.00
18504;BME280;9381;54.244;10.074;2023-04-10T01:53:28;101981.94;;;7.53;100.00
18504;BME280;9381;54.244;10.074;2023-04-10T01:58:30;101975.38;;;7.47;100.00
18504;BME280;9381;54.244;10.074;2023-04-10T02:03:31;101970.16;;;7.54;100.00
18504;BME280;9381;54.244;10.074;2023-04-10T02:08:55;101960.25;;;7.54;100.00
18504;BME280;9381;54.244;10.074;2023-04-10T02:13:59;101956.53;;;7.39;100.00
18504;BME280;9381;54.244;10.074;2023-04-10T02:19:01;101948.78;;;7.28;100.00
18504;BME280;9381;54.244;10.074;2023-04-10T02:24:02;101939.81;;;7.20;100.00
18504;BME280;9381;54.244;10.074;2023-04-10T02:29:03;101938.34;;;7.41;100.00
18504;BME280;9381;54.244;10.074;2023-04-10T02:34:03;101926.91;;;7.31;100.00
18504;BME280;9381;54.244;10.074;2023-04-10T02:39:05;101915.13;;;7.40;100.00
18504;BME280;9381;54.244;10.074;2023-04-10T02:44:05;101912.09;;;7.19;100.00
18504;BME280;9381;54.244;10.074;2023-04-10T02:49:06;101909.91;;;7.23;100.00
18504;BME280;9381;54.244;10.074;2023-04-10T02:54:06;101895.94;;;7.19;100.00
18504;BME280;9381;54.244;10.074;2023-04-10T02:59:07;101895.94;;;7.19;100.00
18504;BME280;9381;54.244;10.074;2023-04-10T03:04:07;101894.59;;;7.23;100.00
18504;BME280;9381;54.244;10.074;2023-04-10T03:09:07;101885.72;;;7.31;100.00
18504;BME280;9381;54.244;10.074;2023-04-10T03:14:08;101872.06;;;7.24;100.00
18504;BME280;9381;54.244;10.074;2023-04-10T03:19:11;101874.75;;;7.16;100.00
18504;BME280;9381;54.244;10.074;2023-04-10T03:24:11;101860.13;;;7.27;100.00
18504;BME280;9381;54.244;10.074;2023-04-10T03:29:12;101855.41;;;7.21;100.00
18504;BME280;9381;54.244;10.074;2023-04-10T03:34:17;101851.53;;;7.31;100.00
18504;BME280;9381;54.244;10.074;2023-04-10T03:39:18;101853.41;;;7.23;100.00
18504;BME280;9381;54.244;10.074;2023-04-10T03:44:18;101864.00;;;7.32;100.00
18504;BME280;9381;54.244;10.074;2023-04-10T03:49:18;101860.28;;;7.33;100.00
18504;BME280;9381;54.244;10.074;2023-04-10T03:54:19;101865.66;;;7.33;100.00
18504;BME280;9381;54.244;10.074;2023-04-10T03:59:19;101871.06;;;7.33;100.00
18504;BME280;9381;54.244;10.074;2023-04-10T04:04:19;101866.03;;;7.38;100.00
18504;BME280;9381;54.244;10.074;2023-04-10T04:09:20;101865.00;;;7.39;100.00
18504;BME280;9381;54.244;10.074;2023-04-10T04:14:21;101860.78;;;7.21;100.00
18504;BME280;9381;54.244;10.074;2023-04-10T04:19:22;101856.94;;;7.31;100.00
18504;BME280;9381;54.244;10.074;2023-04-10T04:24:22;101855.25;;;7.22;100.00
18504;BME280;9381;54.244;10.074;2023-04-10T04:29:23;101851.22;;;7.10;100.00
18504;BME280;9381;54.244;10.074;2023-04-10T04:34:23;101855.59;;;7.35;100.00
18504;BME280;9381;54.244;10.074;2023-04-10T04:39:23;101850.88;;;7.29;100.00
18504;BME280;9381;54.244;10.074;2023-04-10T04:44:24;101852.41;;;7.24;100.00
18504;BME280;9381;54.244;10.074;2023-04-10T04:49:24;101846.84;;;7.33;100.00
18504;BME280;9381;54.244;10.074;2023-04-10T04:54:25;101845.84;;;7.18;100.00
18504;BME280;9381;54.244;10.074;2023-04-10T04:59:25;101849.00;;;7.30;100.00
18504;BME280;9381;54.244;10.074;2023-04-10T05:04:26;101848.19;;;7.45;100.00
18504;BME280;9381;54.244;10.074;2023-04-10T05:09:26;101852.06;;;7.59;100.00
18504;BME280;9381;54.244;10.074;2023-04-10T05:14:26;101853.03;;;7.66;100.00
18504;BME280;9381;54.244;10.074;2023-04-10T05:19:27;101853.34;;;7.87;100.00
18504;BME280;9381;54.244;10.074;2023-04-10T05:24:27;101845.03;;;8.04;100.00
18504;BME280;9381;54.244;10.074;2023-04-10T05:29:27;101837.81;;;7.97;100.00
18504;BME280;9381;54.244;10.074;2023-04-10T05:34:28;101824.28;;;8.21;100.00
18504;BME280;9381;54.244;10.074;2023-04-10T05:39:28;101826.13;;;8.28;100.00
18504;BME280;9381;54.244;10.074;2023-04-10T05:44:29;101831.50;;;8.28;100.00
18504;BME280;9381;54.244;10.074;2023-04-10T05:49:30;101818.94;;;8.43;100.00
18504;BME280;9381;54.244;10.074;2023-04-10T05:54:30;101821.97;;;8.48;100.00
18504;BME280;9381;54.244;10.074;2023-04-10T05:59:30;101822.19;;;8.69;100.00
18504;BME280;9381;54.244;10.074;2023-04-10T06:04:31;101811.72;;;8.74;100.00
18504;BME280;9381;54.244;10.074;2023-04-10T06:09:31;101816.38;;;8.80;100.00
18504;BME280;9381;54.244;10.074;2023-04-10T06:14:32;101804.38;;;9.05;100.00
18504;BME280;9381;54.244;10.074;2023-04-10T06:19:32;101795.84;;;9.16;100.00
18504;BME280;9381;54.244;10.074;2023-04-10T06:24:32;101797.03;;;9.36;100.00
18504;BME280;9381;54.244;10.074;2023-04-10T06:29:33;101768.19;;;9.51;100.00
18504;BME280;9381;54.244;10.074;2023-04-10T06:34:33;101769.59;;;9.61;100.00
18504;BME280;9381;54.244;10.074;2023-04-10T06:39:34;101761.88;;;9.73;100.00
18504;BME280;9381;54.244;10.074;2023-04-10T06:44:34;101749.56;;;9.85;100.00
18504;BME280;9381;54.244;10.074;2023-04-10T06:49:35;101754.41;;;9.89;100.00
18504;BME280;9381;54.244;10.074;2023-04-10T06:54:35;101755.63;;;10.16;99.52
18504;BME280;9381;54.244;10.074;2023-04-10T06:59:36;101752.63;;;10.25;97.14
18504;BME280;9381;54.244;10.074;2023-04-10T07:04:36;101753.75;;;10.52;95.99
18504;BME280;9381;54.244;10.074;2023-04-10T07:09:36;101751.66;;;10.68;95.23
18504;BME280;9381;54.244;10.074;2023-04-10T07:14:37;101742.81;;;10.81;93.06
18504;BME280;9381;54.244;10.074;2023-04-10T07:19:37;101747.47;;;10.87;93.46
18504;BME280;9381;54.244;10.074;2023-04-10T07:24:38;101744.38;;;11.11;91.09
18504;BME280;9381;54.244;10.074;2023-04-10T07:29:38;101744.47;;;11.24;89.24
18504;BME280;9381;54.244;10.074;2023-04-10T07:34:39;101742.13;;;11.48;89.00
18504;BME280;9381;54.244;10.074;2023-04-10T07:39:41;101735.09;;;11.53;87.62
18504;BME280;9381;54.244;10.074;2023-04-10T07:44:41;101731.53;;;11.80;86.91
18504;BME280;9381;54.244;10.074;2023-04-10T07:49:42;101730.38;;;11.96;86.27
18504;BME280;9381;54.244;10.074;2023-04-10T07:54:42;101734.00;;;12.16;83.13
18504;BME280;9381;54.244;10.074;2023-04-10T07:59:42;101721.84;;;12.65;82.17
18504;BME280;9381;54.244;10.074;2023-04-10T08:04:43;101719.75;;;12.80;80.68
18504;BME280;9381;54.244;10.074;2023-04-10T08:09:43;101722.09;;;12.83;78.81
18504;BME280;9381;54.244;10.074;2023-04-10T08:14:44;101712.72;;;13.31;78.41
18504;BME280;9381;54.244;10.074;2023-04-10T08:19:44;101695.69;;;13.68;76.92
18504;BME280;9381;54.244;10.074;2023-04-10T08:24:44;101688.78;;;13.79;75.70
18504;BME280;9381;54.244;10.074;2023-04-10T08:29:45;101689.53;;;13.99;73.19
18504;BME280;9381;54.244;10.074;2023-04-10T08:34:45;101688.41;;;14.19;74.67
18504;BME280;9381;54.244;10.074;2023-04-10T08:39:46;101675.53;;;14.39;73.61
18504;BME280;9381;54.244;10.074;2023-04-10T08:44:48;101669.31;;;14.32;73.00
18504;BME280;9381;54.244;10.074;2023-04-10T08:50:04;101666.81;;;14.62;72.89
18504;BME280;9381;54.244;10.074;2023-04-10T08:55:07;101660.59;;;14.79;69.74
18504;BME280;9381;54.244;10.074;2023-04-10T09:00:08;101654.13;;;14.98;70.18
18504;BME280;9381;54.244;10.074;2023-04-10T09:05:12;101644.09;;;14.98;70.28
18504;BME280;9381;54.244;10.074;2023-04-10T09:10:12;101639.00;;;15.26;69.20
18504;BME280;9381;54.244;10.074;2023-04-10T09:15:13;101636.25;;;15.69;66.88
18504;BME280;9381;54.244;10.074;2023-04-10T09:20:22;101623.66;;;15.68;65.93
18504;BME280;9381;54.244;10.074;2023-04-10T09:30:37;101598.75;;;16.53;67.71
18504;BME280;9381;54.244;10.074;2023-04-10T09:35:39;101590.31;;;16.43;62.93
18504;BME280;9381;54.244;10.074;2023-04-10T09:40:39;101569.81;;;16.75;63.04
18504;BME280;9381;54.244;10.074;2023-04-10T09:45:54;101563.06;;;17.12;62.23
18504;BME280;9381;54.244;10.074;2023-04-10T09:50:55;101539.91;;;17.54;58.79
18504;BME280;9381;54.244;10.074;2023-04-10T09:55:56;101540.50;;;17.56;58.62
18504;BME280;9381;54.244;10.074;2023-04-10T10:00:57;101528.56;;;18.17;57.94
18504;BME280;9381;54.244;10.074;2023-04-10T10:05:57;101522.19;;;18.12;55.32
18504;BME280;9381;54.244;10.074;2023-04-10T10:10:59;101513.59;;;18.69;55.36
18504;BME280;9381;54.244;10.074;2023-04-10T10:16:33;101493.56;;;19.07;54.61
18504;BME280;9381;54.244;10.074;2023-04-10T10:21:37;101489.56;;;19.14;52.22
18504;BME280;9381;54.244;10.074;2023-04-10T10:26:38;101482.94;;;19.53;52.37
18504;BME280;9381;54.244;10.074;2023-04-10T10:31:39;101467.22;;;20.23;50.36
18504;BME280;9381;54.244;10.074;2023-04-10T10:36:39;101463.72;;;20.33;49.08
18504;BME280;9381;54.244;10.074;2023-04-10T10:41:46;101442.00;;;20.31;48.94
18504;BME280;9381;54.244;10.074;2023-04-10T10:47:00;101435.00;;;20.50;47.67
18504;BME280;9381;54.244;10.074;2023-04-10T10:52:03;101429.88;;;20.64;48.65
18504;BME280;9381;54.244;10.074;2023-04-10T11:02:43;101411.34;;;20.49;45.46
18504;BME280;9381;54.244;10.074;2023-04-10T11:13:14;101366.09;;;21.28;44.82
18504;BME280;9381;54.244;10.074;2023-04-10T11:18:15;101365.00;;;21.29;46.09
18504;BME280;9381;54.244;10.074;2023-04-10T11:23:15;101353.44;;;21.37;44.94
18504;BME280;9381;54.244;10.074;2023-04-10T11:33:32;101350.13;;;21.25;44.11
18504;BME280;9381;54.244;10.074;2023-04-10T11:38:33;101331.38;;;21.12;44.17
18504;BME280;9381;54.244;10.074;2023-04-10T11:43:33;101321.84;;;21.54;44.84
18504;BME280;9381;54.244;10.074;2023-04-10T11:48:35;101313.81;;;21.23;43.05
18504;BME280;9381;54.244;10.074;2023-04-10T11:53:37;101296.75;;;21.16;44.36
18504;BME280;9381;54.244;10.074;2023-04-10T11:58:38;101303.84;;;20.97;43.14
18504;BME280;9381;54.244;10.074;2023-04-10T12:03:42;101284.63;;;21.17;43.11
18504;BME280;9381;54.244;10.074;2023-04-10T12:08:47;101293.63;;;20.88;43.99
18504;BME280;9381;54.244;10.074;2023-04-10T12:13:51;101271.84;;;20.81;43.61
18504;BME280;9381;54.244;10.074;2023-04-10T12:18:52;101272.97;;;19.82;45.29
18504;BME280;9381;54.244;10.074;2023-04-10T12:23:53;101264.72;;;19.77;46.02
18504;BME280;9381;54.244;10.074;2023-04-10T12:28:54;101260.31;;;19.76;45.54
18504;BME280;9381;54.244;10.074;2023-04-10T12:33:59;101232.53;;;19.68;45.17
18504;BME280;9381;54.244;10.074;2023-04-10T12:39:02;101239.50;;;19.85;44.75
18504;BME280;9381;54.244;10.074;2023-04-10T12:44:11;101231.41;;;19.64;44.68
18504;BME280;9381;54.244;10.074;2023-04-10T12:49:13;101227.81;;;19.58;45.25
18504;BME280;9381;54.244;10.074;2023-04-10T12:54:33;101213.00;;;19.59;44.05
18504;BME280;9381;54.244;10.074;2023-04-10T12:59:34;101203.78;;;19.39;43.60
18504;BME280;9381;54.244;10.074;2023-04-10T13:04:35;101203.97;;;19.27;43.62
18504;BME280;9381;54.244;10.074;2023-04-10T13:09:35;101183.16;;;19.31;43.44
18504;BME280;9381;54.244;10.074;2023-04-10T13:14:36;101166.09;;;19.24;43.38
18504;BME280;9381;54.244;10.074;2023-04-10T13:19:36;101159.19;;;18.90;43.43
18504;BME280;9381;54.244;10.074;2023-04-10T13:24:37;101151.91;;;19.06;44.21
18504;BME280;9381;54.244;10.074;2023-04-10T13:29:40;101141.94;;;18.90;42.76
18504;BME280;9381;54.244;10.074;2023-04-10T13:34:41;101132.38;;;18.97;42.84
18504;BME280;9381;54.244;10.074;2023-04-10T13:39:41;101123.00;;;18.88;43.34
18504;BME280;9381;54.244;10.074;2023-04-10T13:44:42;101106.25;;;18.85;43.11
18504;BME280;9381;54.244;10.074;2023-04-10T13:49:42;101087.25;;;19.10;44.12
18504;BME280;9381;54.244;10.074;2023-04-10T13:54:43;101064.41;;;18.99;42.09
18504;BME280;9381;54.244;10.074;2023-04-10T13:59:43;101051.97;;;18.82;44.05
18504;BME280;9381;54.244;10.074;2023-04-10T14:04:44;101044.59;;;18.87;43.80
18504;BME280;9381;54.244;10.074;2023-04-10T14:09:48;101030.09;;;18.92;43.15
18504;BME280;9381;54.244;10.074;2023-04-10T14:14:48;101018.16;;;18.71;44.45
18504;BME280;9381;54.244;10.074;2023-04-10T14:19:49;101006.66;;;18.74;43.49
18504;BME280;9381;54.244;10.074;2023-04-10T14:24:51;100995.63;;;18.64;44.71
18504;BME280;9381;54.244;10.074;2023-04-10T14:29:53;100977.53;;;18.58;45.62
18504;BME280;9381;54.244;10.074;2023-04-10T14:34:54;100969.19;;;18.43;46.90
18504;BME280;9381;54.244;10.074;2023-04-10T14:39:54;100948.06;;;18.39;46.20
18504;BME280;9381;54.244;10.074;2023-04-10T14:44:55;100939.72;;;18.60;46.76
18504;BME280;9381;54.244;10.074;2023-04-10T14:49:57;100916.28;;;18.79;46.26
18504;BME280;9381;54.244;10.074;2023-04-10T14:54:58;100905.41;;;18.99;46.95
18504;BME280;9381;54.244;10.074;2023-04-10T14:59:58;100894.56;;;18.63;44.83
18504;BME280;9381;54.244;10.074;2023-04-10T15:05:00;100877.09;;;18.37;47.33
18504;BME280;9381;54.244;10.074;2023-04-10T15:10:01;100878.09;;;18.26;48.25
18504;BME280;9381;54.244;10.074;2023-04-10T15:15:01;100879.38;;;18.14;47.04
18504;BME280;9381;54.244;10.074;2023-04-10T15:20:02;100879.19;;;18.25;47.00
18504;BME280;9381;54.244;10.074;2023-04-10T15:25:04;100858.16;;;17.94;46.37
18504;BME280;9381;54.244;10.074;2023-04-10T15:30:05;100848.84;;;17.95;46.85
18504;BME280;9381;54.244;10.074;2023-04-10T15:35:06;100836.53;;;17.98;46.68
18504;BME280;9381;54.244;10.074;2023-04-10T15:40:07;100824.31;;;18.05;47.73
18504;BME280;9381;54.244;10.074;2023-04-10T15:45:09;100803.94;;;17.91;47.45
18504;BME280;9381;54.244;10.074;2023-04-10T15:50:10;100785.38;;;17.98;48.19
18504;BME280;9381;54.244;10.074;2023-04-10T15:55:10;100761.25;;;17.90;49.14
18504;BME280;9381;54.244;10.074;2023-04-10T16:00:11;100768.09;;;17.93;48.02
18504;BME280;9381;54.244;10.074;2023-04-10T16:05:12;100756.31;;;17.92;48.81
18504;BME280;9381;54.244;10.074;2023-04-10T16:10:12;100719.66;;;17.93;49.10
18504;BME280;9381;54.244;10.074;2023-04-10T16:15:13;100724.31;;;17.93;49.33
18504;BME280;9381;54.244;10.074;2023-04-10T16:20:13;100710.84;;;17.82;50.60
18504;BME280;9381;54.244;10.074;2023-04-10T16:25:14;100692.94;;;17.64;51.30
18504;BME280;9381;54.244;10.074;2023-04-10T16:30:14;100696.13;;;17.51;51.42
18504;BME280;9381;54.244;10.074;2023-04-10T16:35:14;100688.44;;;17.48;51.42
18504;BME280;9381;54.244;10.074;2023-04-10T16:40:17;100692.50;;;17.41;51.54
18504;BME280;9381;54.244;10.074;2023-04-10T16:45:17;100684.31;;;17.46;52.12
18504;BME280;9381;54.244;10.074;2023-04-10T16:50:17;100673.13;;;17.16;53.19
18504;BME280;9381;54.244;10.074;2023-04-10T16:55:18;100648.59;;;17.21;53.55
18504;BME280;9381;54.244;10.074;2023-04-10T17:00:18;100651.78;;;17.13;53.19
18504;BME280;9381;54.244;10.074;2023-04-10T17:05:19;100632.31;;;17.04;54.20
18504;BME280;9381;54.244;10.074;2023-04-10T17:10:19;100631.91;;;16.91;54.63
18504;BME280;9381;54.244;10.074;2023-04-10T17:15:19;100612.16;;;16.79;55.40
18504;BME280;9381;54.244;10.074;2023-04-10T17:20:20;100599.50;;;16.68;55.92
18504;BME280;9381;54.244;10.074;2023-04-10T17:25:20;100592.06;;;16.63;55.92
18504;BME280;9381;54.244;10.074;2023-04-10T17:30:20;100577.91;;;16.40;56.37
18504;BME280;9381;54.244;10.074;2023-04-10T17:35:21;100572.50;;;16.45;56.29
18504;BME280;9381;54.244;10.074;2023-04-10T17:40:21;100578.78;;;16.45;57.08
18504;BME280;9381;54.244;10.074;2023-04-10T17:45:22;100591.16;;;16.31;57.19
18504;BME280;9381;54.244;10.074;2023-04-10T17:50:22;100565.78;;;16.31;56.79
18504;BME280;9381;54.244;10.074;2023-04-10T17:55:23;100572.81;;;16.27;56.70
18504;BME280;9381;54.244;10.074;2023-04-10T18:00:23;100558.56;;;16.20;56.79
18504;BME280;9381;54.244;10.074;2023-04-10T18:05:23;100567.25;;;16.17;57.18
18504;BME280;9381;54.244;10.074;2023-04-10T18:10:24;100562.06;;;16.15;57.55
18504;BME280;9381;54.244;10.074;2023-04-10T18:15:25;100564.88;;;15.99;57.55
18504;BME280;9381;54.244;10.074;2023-04-10T18:20:25;100561.13;;;16.05;57.44
18504;BME280;9381;54.244;10.074;2023-04-10T18:25:25;100557.56;;;16.04;58.11
18504;BME280;9381;54.244;10.074;2023-04-10T18:30:27;100552.63;;;16.01;57.67
18504;BME280;9381;54.244;10.074;2023-04-10T18:35:27;100552.56;;;15.96;58.42
18504;BME280;9381;54.244;10.074;2023-04-10T18:40:27;100543.16;;;15.82;58.91
18504;BME280;9381;54.244;10.074;2023-04-10T18:45:28;100542.91;;;15.84;59.15
18504;BME280;9381;54.244;10.074;2023-04-10T18:50:30;100519.63;;;15.76;59.10
18504;BME280;9381;54.244;10.074;2023-04-10T18:55:32;100526.38;;;15.74;59.10
18504;BME280;9381;54.244;10.074;2023-04-10T19:00:32;100523.66;;;15.74;59.02
18504;BME280;9381;54.244;10.074;2023-04-10T19:05:33;100510.03;;;15.74;59.87
18504;BME280;9381;54.244;10.074;2023-04-10T19:10:36;100509.31;;;15.57;60.67
18504;BME280;9381;54.244;10.074;2023-04-10T19:15:40;100494.28;;;15.54;60.90
18504;BME280;9381;54.244;10.074;2023-04-10T19:20:41;100485.03;;;15.55;60.71
18504;BME280;9381;54.244;10.074;2023-04-10T19:25:42;100472.06;;;15.46;61.27
18504;BME280;9381;54.244;10.074;2023-04-10T19:30:42;100465.53;;;15.47;61.94
18504;BME280;9381;54.244;10.074;2023-04-10T19:35:43;100457.66;;;15.45;62.39
18504;BME280;9381;54.244;10.074;2023-04-10T19:40:43;100444.00;;;15.45;62.13
18504;BME280;9381;54.244;10.074;2023-04-10T19:45:44;100443.63;;;15.37;62.32
18504;BME280;9381;54.244;10.074;2023-04-10T19:50:45;100447.22;;;15.42;61.89
18504;BME280;9381;54.244;10.074;2023-04-10T19:55:45;100466.06;;;15.44;62.18
18504;BME280;9381;54.244;10.074;2023-04-10T20:00:45;100455.59;;;15.36;63.30
18504;BME280;9381;54.244;10.074;2023-04-10T20:05:47;100459.50;;;15.40;65.31
18504;BME280;9381;54.244;10.074;2023-04-10T20:10:47;100452.25;;;15.29;66.51
18504;BME280;9381;54.244;10.074;2023-04-10T20:15:48;100455.13;;;15.22;65.89
18504;BME280;9381;54.244;10.074;2023-04-10T20:20:48;100442.69;;;15.10;68.18
18504;BME280;9381;54.244;10.074;2023-04-10T20:25:49;100411.50;;;14.96;69.17
18504;BME280;9381;54.244;10.074;2023-04-10T20:30:49;100388.50;;;14.87;70.27
18504;BME280;9381;54.244;10.074;2023-04-10T20:35:51;100373.16;;;14.81;72.87
18504;BME280;9381;54.244;10.074;2023-04-10T20:40:52;100352.63;;;14.52;74.29
18504;BME280;9381;54.244;10.074;2023-04-10T20:45:52;100343.75;;;14.24;74.89
18504;BME280;9381;54.244;10.074;2023-04-10T20:50:53;100333.94;;;14.23;76.86
18504;BME280;9381;54.244;10.074;2023-04-10T20:55:53;100333.53;;;14.14;74.87
18504;BME280;9381;54.244;10.074;2023-04-10T21:00:54;100333.91;;;14.18;73.24
18504;BME280;9381;54.244;10.074;2023-04-10T21:05:55;100317.72;;;14.11;75.10
18504;BME280;9381;54.244;10.074;2023-04-10T21:10:55;100287.53;;;14.13;74.08
18504;BME280;9381;54.244;10.074;2023-04-10T21:15:58;100257.38;;;14.14;73.86
18504;BME280;9381;54.244;10.074;2023-04-10T21:20:58;100243.31;;;14.17;72.26
18504;BME280;9381;54.244;10.074;2023-04-10T21:25:59;100217.88;;;14.28;71.54
18504;BME280;9381;54.244;10.074;2023-04-10T21:31:00;100204.59;;;14.32;70.85
18504;BME280;9381;54.244;10.074;2023-04-10T21:36:01;100179.03;;;14.54;69.09
18504;BME280;9381;54.244;10.074;2023-04-10T21:41:01;100162.13;;;14.52;68.60
18504;BME280;9381;54.244;10.074;2023-04-10T21:46:02;100155.19;;;14.40;69.28
18504;BME280;9381;54.244;10.074;2023-04-10T21:51:02;100167.47;;;14.42;67.95
18504;BME280;9381;54.244;10.074;2023-04-10T21:56:04;100169.72;;;14.50;68.23
18504;BME280;9381;54.244;10.074;2023-04-10T22:01:05;100170.84;;;14.54;67.41
18504;BME280;9381;54.244;10.074;2023-04-10T22:06:07;100177.94;;;14.55;67.64
18504;BME280;9381;54.244;10.074;2023-04-10T22:11:07;100186.41;;;14.59;69.72
18504;BME280;9381;54.244;10.074;2023-04-10T22:16:08;100177.50;;;14.42;72.79
18504;BME280;9381;54.244;10.074;2023-04-10T22:21:08;100177.41;;;14.32;74.30
18504;BME280;9381;54.244;10.074;2023-04-10T22:26:08;100181.38;;;14.24;74.67
18504;BME280;9381;54.244;10.074;2023-04-10T22:31:16;100174.25;;;14.02;77.77
18504;BME280;9381;54.244;10.074;2023-04-10T22:36:16;100189.66;;;13.75;80.00
18504;BME280;9381;54.244;10.074;2023-04-10T22:41:17;100180.53;;;13.64;83.00
18504;BME280;9381;54.244;10.074;2023-04-10T22:46:17;100203.09;;;13.15;88.18
18504;BME280;9381;54.244;10.074;2023-04-10T22:51:17;100200.97;;;12.33;95.36
18504;BME280;9381;54.244;10.074;2023-04-10T22:56:18;100208.47;;;12.03;100.00
18504;BME280;9381;54.244;10.074;2023-04-10T23:01:22;100204.72;;;11.81;100.00
18504;BME280;9381;54.244;10.074;2023-04-10T23:06:22;100181.63;;;11.90;100.00
18504;BME280;9381;54.244;10.074;2023-04-10T23:11:23;100174.59;;;11.67;100.00
18504;BME280;9381;54.244;10.074;2023-04-10T23:16:23;100162.34;;;11.75;100.00
18504;BME280;9381;54.244;10.074;2023-04-10T23:21:23;100153.72;;;11.78;100.00
18504;BME280;9381;54.244;10.074;2023-04-10T23:26:24;100135.84;;;11.66;100.00
18504;BME280;9381;54.244;10.074;2023-04-10T23:31:24;100115.94;;;11.72;100.00
18504;BME280;9381;54.244;10.074;2023-04-10T23:36:24;100118.66;;;11.61;100.00
18504;BME280;9381;54.244;10.074;2023-04-10T23:41:26;100108.72;;;11.54;100.00
18504;BME280;9381;54.244;10.074;2023-04-10T23:46:26;100088.50;;;11.68;100.00
18504;BME280;9381;54.244;10.074;2023-04-10T23:51:26;100076.75;;;11.63;100.00
18504;BME280;9381;54.244;10.074;2023-04-10T23:56:27;100063.06;;;11.58;100.00
